Latest Weather Observations for Canberra

IDN60901

Issued at 3:21 pm EST Thursday 29 June 2017 (issued every 10 minutes, with the page automatically refreshed every 10 minutes)

About weather observations | Map of Canberra area stations | Latest observations for Canberra area | Other Formats
Station Details ID: 070351 Name: CANBERRA AIRPORT Lat: -35.31 Lon: 149.20 Height: 577.05 m
Data from the previous 72 hours. | See also: Recent months at Canberra
Date/Time
EST
Temp
°C
App
Temp
°C
Dew
Point
°C
Rel
Hum
%
Delta-T
°C
Wind Press
QNH
hPa
Press
MSL
hPa
Rain since
9am
mm
Dir  Spd
km/h
Gust
km/h
Spd
kts
Gust
kts
29/03:00pm 9.8 5.5 3.5 65 2.8 WNW 15 20 8 11 1019.2 1020.2 0.0
29/02:30pm 10.2 7.1 3.7 64 3.0 NW 9 15 5 8 1019.2 1020.2 0.0
29/02:00pm 8.9 5.7 3.1 67 2.6 N 9 15 5 8 1019.2 1020.2 0.0
29/01:30pm 8.7 5.5 2.9 67 2.6 WNW 9 13 5 7 1019.4 1020.4 0.0
29/01:00pm 8.2 4.9 2.7 68 2.4 NW 9 13 5 7 1020.0 1020.9 0.0
29/12:30pm 7.6 4.3 2.7 71 2.1 NW 9 11 5 6 1020.4 1021.3 0.0
29/12:00pm 7.3 3.7 3.2 75 1.8 W 11 15 6 8 1020.9 1021.9 0.0
29/11:30am 5.4 2.5 2.4 81 1.3 NW 7 9 4 5 1021.4 1022.4 0.0
29/11:00am 3.9 1.0 2.4 90 0.6 WSW 7 11 4 6 1022.0 1023.0 0.0
29/10:30am 2.9 -0.4 2.5 97 0.2 WSW 9 13 5 7 1022.5 1023.5 0.0
29/10:09am 3.2 0.6 3.1 99 0.0 W 6 7 3 4 1022.6 1023.6 0.0
29/10:00am 2.8 0.1 2.7 99 0.0 NNW 6 7 3 4 1022.6 1023.6 0.0
29/09:48am 1.5 -1.0 1.4 99 0.0 NNW 4 9 2 5 1022.7 1023.7 0.0
29/09:30am 1.1 -2.4 1.0 99 0.0 N 9 11 5 6 1022.7 1023.7 0.0
29/09:28am 0.7 -2.9 0.6 99 0.0 N 9 11 5 6 1022.7 1023.7 0.0
29/09:19am 0.6 -2.6 0.5 99 0.0 N 7 11 4 6 1022.7 1023.7 0.0
29/09:13am 0.2 -3.1 0.1 99 0.0 N 7 11 4 6 1022.7 1023.7 0.0
29/09:08am 0.2 -3.5 0.1 99 0.0 N 9 11 5 6 1022.7 1023.7 0.0
29/09:00am -0.3 -3.7 -0.4 99 0.0 N 7 9 4 5 1022.7 1023.7 0.2
29/08:30am -0.9 -4.2 -1.0 99 0.0 N 6 9 3 5 1022.4 1023.4 0.0
29/08:08am -1.6 -5.0 -1.7 99 0.0 NNW 6 9 3 5 1022.3 1023.3 0.0
29/08:00am -2.8 -5.2 -2.9 99 -0.1 CALM 0 6 0 3 1022.2 1023.2 0.0
29/07:30am -2.6 -6.7 -2.7 99 -0.1 S 9 11 5 6 1021.8 1022.7 0.0
29/07:26am -2.5 -6.5 -2.6 99 -0.1 S 9 13 5 7 1021.8 1022.7 0.0
29/07:24am -2.6 -7.0 -2.7 99 -0.1 S 11 15 6 8 1021.8 1022.7 0.0
29/07:00am -1.4 -4.4 -1.5 99 0.0 S 4 9 2 5 1021.9 1022.8 0.0
29/06:30am -1.6 -5.5 -1.7 99 0.0 ESE 9 9 5 5 1021.8 1022.7 0.0
29/06:27am -1.7 -5.6 -1.8 99 0.0 ESE 9 9 5 5 1021.8 1022.7 0.0
29/06:00am -2.1 -5.1 -2.2 99 -0.1 N 4 6 2 3 1021.8 1022.7 0.0
29/05:36am -1.9 -5.5 -2.0 99 -0.1 N 7 9 4 5 1021.1 1022.1 0.0
29/05:30am -2.1 -5.5 -2.2 99 -0.1 N 6 7 3 4 1021.1 1022.1 0.0
29/05:23am -2.4 -5.9 -2.5 99 -0.1 N 6 7 3 4 1021.1 1022.1 0.0
29/05:13am -1.9 -5.5 -2.0 99 -0.1 N 7 9 4 5 1021.1 1022.1 0.0
29/05:00am -1.7 -5.6 -1.8 99 0.0 ENE 9 11 5 6 1021.2 1022.2 0.0
29/04:30am -2.9 -6.4 -3.0 99 -0.1 SE 6 9 3 5 1021.5 1022.5 0.0
29/04:00am -2.6 -6.7 -2.7 99 -0.1 SSE 9 9 5 5 1021.8 1022.7 0.0
29/03:44am -2.9 -7.4 -3.0 99 -0.1 SSE 11 15 6 8 1021.9 1022.8 0.0
29/03:41am -3.1 -8.0 -3.2 99 -0.1 S 13 15 7 8 1021.9 1022.8 0.0
29/03:31am -2.7 -7.1 -2.8 99 -0.1 SSW 11 15 6 8 1022.0 1023.0 0.0
29/03:30am -2.7 -7.1 -2.8 99 -0.1 SSW 11 15 6 8 1022.1 1023.1 0.0
29/03:26am -3.8 -7.4 -3.9 99 -0.1 SSE 6 13 3 7 1022.1 1023.1 0.0
29/03:05am - - - - - ENE 6 7 3 4 - - -
29/03:00am -2.3 -5.7 -2.4 99 -0.1 E 6 7 3 4 - 1023.3 0.0
29/02:51am - - - - - ENE 4 7 2 4 - - -
29/02:45am -2.9 -5.3 -3.0 99 -0.1 CALM 0 0 0 0 1022.0 1023.0 0.0
29/02:39am - - - - - CALM 0 - 0 - - - -
29/02:31am - - - - - CALM 0 - 0 - - - -
29/02:30am - - - - - CALM 0 - 0 - - - -
29/02:28am - - - - - CALM 0 - 0 - - - -
29/02:23am - - - - - CALM 0 - 0 - - - -
29/02:16am - - - - - CALM 0 - 0 - - - -
29/02:02am -1.9 -4.2 -2.0 99 -0.1 CALM 0 6 0 3 1021.8 1022.7 0.0
29/02:00am -1.9 -4.5 -2.0 99 -0.1 N 2 7 1 4 1021.8 1022.7 0.0
29/01:59am -1.9 -4.5 -2.0 99 -0.1 N 2 7 1 4 1021.8 1022.7 0.0
29/01:54am -1.9 -5.3 -2.0 99 -0.1 N 6 9 3 5 1021.9 1022.8 0.0
29/01:39am -1.1 -4.6 -1.2 99 0.0 N 7 9 4 5 1021.9 1022.8 0.0
29/01:30am -2.1 -5.7 -2.2 99 -0.1 NNE 7 11 4 6 1022.0 1023.0 0.0
29/01:20am -2.3 -5.4 -2.4 99 -0.1 NNE 4 6 2 3 1021.8 1022.7 0.0
29/01:11am -2.0 -5.4 -2.1 99 -0.1 NNE 6 7 3 4 1021.9 1022.8 0.0
29/01:03am -1.9 -5.3 -2.0 99 -0.1 NE 6 7 3 4 1022.0 1023.0 0.0
29/01:00am -1.8 -5.4 -1.9 99 0.0 NE 7 7 4 4 1022.0 1023.0 0.0
29/12:50am -1.9 -5.5 -2.0 99 -0.1 NNE 7 7 4 4 1022.2 1023.2 0.0
29/12:30am -1.0 -3.1 -1.1 99 0.0 CALM 0 0 0 0 1022.3 1023.3 0.0
29/12:28am -0.9 -3.0 -1.0 99 0.0 CALM 0 4 0 2 1022.3 1023.3 0.0
29/12:00am -0.8 -4.2 -0.9 99 0.0 SSW 7 9 4 5 1022.6 1023.6 0.0
 
Date/Time
EST
Temp
°C
App
Temp
°C
Dew
Point
°C
Rel
Hum
%
Delta-T
°C
Wind Press
QNH
hPa
Press
MSL
hPa
Rain since
9am
mm
Dir  Spd
km/h
Gust
km/h
Spd
kts
Gust
kts
28/11:30pm 0.1 -3.0 0.0 99 0.0 SE 6 9 3 5 1022.9 1023.9 0.0
28/11:00pm -0.7 -3.6 -1.0 98 0.1 E 4 9 2 5 1022.8 1023.8 0.0
28/10:30pm 1.3 -2.6 1.2 99 0.0 N 11 13 6 7 1022.9 1023.9 0.0
28/10:00pm 0.9 -2.7 0.8 99 0.0 ESE 9 9 5 5 1022.6 1023.6 0.0
28/09:30pm 0.9 -2.3 0.8 99 0.0 SSW 7 11 4 6 1022.4 1023.4 0.0
28/09:00pm 1.0 -2.3 -0.1 92 0.4 ESE 7 9 4 5 1022.4 1023.4 0.0
28/08:30pm 4.2 1.2 2.1 86 0.9 NE 7 11 4 6 1022.3 1023.3 0.0
28/08:00pm 4.7 0.7 2.6 86 0.9 N 13 17 7 9 1022.3 1023.3 0.0
28/07:30pm 5.1 1.4 2.6 84 1.1 NE 11 13 6 7 1022.2 1023.2 0.0
28/07:00pm 6.2 1.9 3.2 81 1.3 N 15 17 8 9 1021.9 1022.8 0.0
28/06:30pm 6.4 2.4 3.0 79 1.5 N 13 19 7 10 1021.7 1022.6 0.0
28/06:00pm 7.5 3.2 3.2 74 1.9 N 15 20 8 11 1021.4 1022.4 0.0
28/05:30pm 8.1 3.8 3.4 72 2.1 NE 15 19 8 10 1021.3 1022.3 0.0
28/05:00pm 8.4 4.6 3.7 72 2.1 N 13 17 7 9 1021.2 1022.2 0.0
28/04:30pm 9.7 3.8 4.1 68 2.6 NNW 24 28 13 15 1020.8 1021.8 0.0
28/04:00pm 10.9 5.9 4.4 64 3.0 NNW 20 30 11 16 1020.8 1021.8 0.0
28/03:30pm 11.6 6.8 4.6 62 3.3 NNW 19 24 10 13 1020.9 1021.9 0.0
28/03:00pm 11.7 6.6 4.0 59 3.6 NNW 20 26 11 14 1020.8 1021.8 0.0
28/02:30pm 11.4 6.6 4.4 62 3.3 NNW 19 26 10 14 1020.8 1021.8 0.0
28/02:00pm 11.6 7.5 4.6 62 3.3 NW 15 22 8 12 1020.9 1021.9 0.0
28/01:30pm 10.9 7.7 5.0 67 2.8 NW 11 19 6 10 1021.2 1022.2 0.0
28/01:00pm 10.7 7.1 5.0 68 2.7 NW 13 15 7 8 1021.4 1022.4 0.0
28/12:30pm 10.1 6.9 4.9 70 2.4 NNW 11 15 6 8 1021.8 1022.7 0.0
28/12:00pm 10.1 7.4 5.7 74 2.1 NNW 9 13 5 7 1022.4 1023.4 0.0
28/11:30am 9.0 5.9 5.7 80 1.6 NNW 11 15 6 8 1022.8 1023.8 0.0
28/11:00am 8.3 5.9 5.4 82 1.3 WNW 7 9 4 5 1023.3 1024.3 0.0
28/10:30am 7.8 5.6 5.3 84 1.2 N 6 7 3 4 1023.4 1024.5 0.0
28/10:00am 7.1 6.0 5.3 88 0.8 CALM 0 0 0 0 1023.4 1024.5 0.0
28/09:30am 6.6 5.6 5.4 92 0.5 CALM 0 0 0 0 1023.4 1024.5 0.0
28/09:00am 5.8 4.4 5.4 97 0.2 S 2 6 1 3 1023.1 1024.1 0.0
28/08:30am 4.5 3.3 4.4 99 0.0 CALM 0 4 0 2 1023.1 1024.1 0.0
28/08:00am 3.7 1.2 3.6 99 0.0 NNW 6 7 3 4 1023.0 1024.0 0.0
28/07:30am 3.0 1.1 2.9 99 0.0 SSE 2 6 1 3 1022.9 1023.9 0.0
28/07:00am 3.4 2.0 3.3 99 0.0 CALM 0 0 0 0 1022.7 1023.7 0.0
28/06:30am 2.9 1.4 2.8 99 0.0 CALM 0 0 0 0 1022.7 1023.7 0.0
28/06:00am 2.6 0.6 2.5 99 0.0 ENE 2 7 1 4 1022.5 1023.5 0.0
28/05:30am 2.3 -0.1 2.2 99 0.0 NW 4 9 2 5 1022.5 1023.5 0.0
28/05:00am 3.6 1.1 3.5 99 0.0 NNE 6 7 3 4 1022.2 1023.2 0.0
28/04:30am 3.3 1.5 3.2 99 0.0 WNW 2 7 1 4 1022.8 1023.8 0.0
28/04:00am 4.2 2.1 4.1 99 0.0 ESE 4 6 2 3 1022.6 1023.6 0.0
28/03:30am 3.2 1.7 3.1 99 0.0 CALM 0 0 0 0 1023.1 1024.1 0.0
28/03:00am 3.3 0.5 3.2 99 0.0 N 7 9 4 5 1023.1 1024.1 0.0
28/02:30am 3.5 0.9 3.4 99 0.0 N 6 7 3 4 1023.0 1024.0 0.0
28/02:00am 3.4 0.6 3.1 98 0.1 ESE 7 9 4 5 1023.0 1024.0 0.0
28/01:30am 4.0 2.6 3.7 98 0.1 CALM 0 0 0 0 1023.2 1024.2 0.0
28/01:00am 3.7 2.3 3.3 97 0.2 CALM 0 4 0 2 1022.8 1023.8 0.0
28/12:30am 4.0 2.1 3.0 93 0.4 NNE 2 9 1 5 1023.1 1024.1 0.0
28/12:00am 4.6 3.3 3.9 95 0.3 CALM 0 0 0 0 1023.4 1024.5 0.0
 
Date/Time
EST
Temp
°C
App
Temp
°C
Dew
Point
°C
Rel
Hum
%
Delta-T
°C
Wind Press
QNH
hPa
Press
MSL
hPa
Rain since
9am
mm
Dir  Spd
km/h
Gust
km/h
Spd
kts
Gust
kts
27/11:30pm 4.6 3.2 3.4 92 0.5 CALM 0 0 0 0 1024.2 1025.2 0.0
27/11:00pm 4.7 3.3 3.5 92 0.5 CALM 0 0 0 0 1024.2 1025.2 0.0
27/10:30pm 5.0 3.6 3.8 92 0.5 CALM 0 0 0 0 1024.3 1025.3 0.0
27/10:00pm 4.8 3.4 3.6 92 0.5 CALM 0 0 0 0 1024.0 1025.0 0.0
27/09:30pm 4.6 2.0 3.3 91 0.6 WNW 6 7 3 4 1024.1 1025.1 0.0
27/09:00pm 5.0 3.6 3.5 90 0.6 CALM 0 0 0 0 1024.0 1025.0 0.0
27/08:30pm 4.8 3.3 3.0 88 0.8 CALM 0 0 0 0 1024.1 1025.1 0.0
27/08:00pm 5.2 3.8 3.4 88 0.8 CALM 0 0 0 0 1024.0 1025.0 0.0
27/07:30pm 5.4 4.0 3.3 86 0.9 CALM 0 0 0 0 1024.3 1025.3 0.0
27/07:00pm 5.8 4.0 3.6 86 1.0 SSE 2 6 1 3 1024.3 1025.3 0.0
27/06:30pm 6.2 3.7 3.5 83 1.2 ENE 6 7 3 4 1024.1 1025.1 0.0
27/06:00pm 6.9 5.1 3.7 80 1.4 NE 2 9 1 5 1024.2 1025.2 0.0
27/05:30pm 7.3 4.6 3.5 77 1.7 ENE 7 9 4 5 1023.8 1024.8 0.0
27/05:00pm 8.5 6.0 3.9 73 2.1 NE 6 7 3 4 1023.7 1024.7 0.0
27/04:30pm 9.6 7.0 4.0 68 2.5 N 7 7 4 4 1023.8 1024.8 0.0
27/04:00pm 10.0 7.4 4.0 66 2.7 NNE 7 9 4 5 1023.4 1024.5 0.0
27/03:30pm 10.5 7.3 3.1 60 3.3 NNE 9 11 5 6 1023.3 1024.3 0.0
27/03:00pm 10.5 7.4 3.5 62 3.2 NNW 9 11 5 6 1023.4 1024.5 0.0
27/02:30pm 10.8 7.8 4.0 63 3.1 NNE 9 13 5 7 1023.8 1024.8 0.0
27/02:00pm 10.7 6.8 3.5 61 3.3 N 13 17 7 9 1023.8 1024.8 0.0
27/01:30pm 10.7 6.9 4.0 63 3.1 NNW 13 15 7 8 1024.3 1025.3 0.0
27/01:00pm 11.1 8.4 3.6 60 3.4 W 7 11 4 6 1024.6 1025.6 0.0
27/12:30pm 10.4 7.9 3.9 64 3.0 WSW 6 13 3 7 1025.2 1026.3 0.0
27/12:00pm 10.9 8.4 3.9 62 3.2 ESE 6 9 3 5 1025.6 1026.6 0.0
27/11:30am 10.0 7.5 3.7 65 2.9 WSW 6 9 3 5 1026.0 1027.0 0.0
27/11:00am 8.4 5.6 3.3 70 2.2 SW 7 11 4 6 1026.3 1027.3 0.0
27/10:30am 6.7 4.5 3.1 78 1.6 SW 4 7 2 4 1026.7 1027.8 0.0
27/10:00am 5.3 3.7 2.5 82 1.2 CALM 0 0 0 0 1027.0 1028.1 0.0
27/09:30am 3.8 1.4 2.0 88 0.7 NNW 4 7 2 4 1027.3 1028.3 0.0
27/09:00am 2.3 0.5 1.4 94 0.4 CALM 0 4 0 2 1026.9 1028.0 0.0
27/08:30am -0.4 -3.6 -0.5 99 0.0 N 6 7 3 4 1026.7 1027.8 0.0
27/08:00am -2.2 -4.9 -2.3 99 -0.1 ENE 2 7 1 4 1026.7 1027.8 0.0
27/07:45am -2.9 -5.3 -3.0 99 -0.1 CALM 0 0 0 0 1026.5 1027.6 0.0
27/07:38am -3.2 -5.6 -3.3 99 -0.1 CALM 0 0 0 0 1026.5 1027.6 0.0
27/07:30am -3.9 -6.4 -4.0 99 -0.1 CALM 0 0 0 0 1026.5 1027.6 0.0
27/07:28am -3.7 -6.2 -3.8 99 -0.1 CALM 0 0 0 0 1026.5 1027.6 0.0
27/07:25am -3.3 -5.7 -3.4 99 -0.1 CALM 0 0 0 0 1026.5 1027.6 0.0
27/07:00am -2.8 -5.2 -2.9 99 -0.1 CALM 0 0 0 0 1026.5 1027.6 0.0
27/06:43am -2.9 -5.3 -3.0 99 -0.1 CALM 0 0 0 0 1026.4 1027.5 0.0
27/06:30am -3.1 -5.5 -3.2 99 -0.1 CALM 0 0 0 0 1026.4 1027.5 0.0
27/06:24am -3.5 -6.0 -3.6 99 -0.1 CALM 0 0 0 0 1026.3 1027.3 0.0
27/06:00am -2.4 -4.7 -2.5 99 -0.1 CALM 0 0 0 0 1026.2 1027.2 0.0
27/05:59am -2.5 -4.8 -2.6 99 -0.1 CALM 0 0 0 0 1026.2 1027.2 0.0
27/05:49am -2.8 -5.2 -2.9 99 -0.1 CALM 0 4 0 2 1026.3 1027.3 0.0
27/05:43am -3.4 -6.6 -3.5 99 -0.1 ESE 4 7 2 4 1026.3 1027.3 0.0
27/05:30am -4.1 -7.4 -4.2 99 -0.1 ENE 4 7 2 4 1026.2 1027.2 0.0
27/05:26am -4.0 -6.9 -4.3 98 -0.1 NNE 2 7 1 4 1026.2 1027.2 0.0
27/05:00am -3.0 -6.2 -3.1 99 -0.1 N 4 7 2 4 1026.0 1027.0 0.0
27/04:46am -1.5 -3.7 -1.6 99 0.0 CALM 0 0 0 0 1026.0 1027.0 0.0
27/04:30am -1.8 -4.0 -1.9 99 0.0 CALM 0 0 0 0 1025.9 1026.9 0.0
27/04:13am -1.5 -3.7 -1.6 99 0.0 CALM 0 0 0 0 1025.9 1026.9 0.0
27/04:08am -1.4 -3.6 -1.5 99 0.0 CALM 0 0 0 0 1025.8 1026.8 0.0
27/04:00am -1.7 -3.9 -1.8 99 0.0 CALM 0 0 0 0 1025.7 1026.7 0.0
27/03:30am -1.7 -3.9 -1.8 99 0.0 CALM 0 0 0 0 1025.8 1026.8 0.0
27/03:00am -3.0 -5.4 -3.3 98 0.0 CALM 0 0 0 0 1025.8 1026.8 0.0
27/02:38am -2.1 -5.1 -2.2 99 -0.1 SSE 4 9 2 5 1026.0 1027.0 0.0
27/02:30am -1.7 -5.3 -1.8 99 0.0 ESE 7 9 4 5 1025.9 1026.9 0.0
27/02:16am -1.1 -3.3 -1.2 99 0.0 CALM 0 0 0 0 1026.0 1027.0 0.0
27/02:00am -0.8 -2.9 -0.9 99 0.0 CALM 0 0 0 0 1026.1 1027.1 0.0
27/01:30am -0.7 -2.9 -1.3 96 0.2 CALM 0 0 0 0 1025.8 1026.8 0.0
27/01:00am -0.1 -2.1 -0.2 99 0.0 CALM 0 0 0 0 1025.5 1026.5 0.0
27/12:30am -0.6 -3.4 -0.7 99 0.0 N 4 7 2 4 1025.8 1026.8 0.0
27/12:00am 0.2 -2.6 -0.2 97 0.1 N 4 7 2 4 1025.7 1026.7 0.0
 
Date/Time
EST
Temp
°C
App
Temp
°C
Dew
Point
°C
Rel
Hum
%
Delta-T
°C
Wind Press
QNH
hPa
Press
MSL
hPa
Rain since
9am
mm
Dir  Spd
km/h
Gust
km/h
Spd
kts
Gust
kts
26/11:30pm -0.2 -2.4 -1.2 93 0.4 CALM 0 0 0 0 1025.6 1026.6 0.0
26/11:00pm 1.1 -1.9 0.7 97 0.2 E 6 7 3 4 1025.6 1026.6 0.0
26/10:30pm 0.8 -2.1 -1.0 88 0.7 NNW 4 9 2 5 1025.6 1026.6 0.0
26/10:00pm 2.0 0.1 0.7 91 0.5 CALM 0 0 0 0 1025.1 1026.2 0.0
26/09:30pm 3.5 1.7 1.5 87 0.8 CALM 0 0 0 0 1024.9 1026.0 0.0
26/09:00pm 3.8 1.3 1.4 84 1.0 SE 4 9 2 5 1024.6 1025.6 0.0
26/08:30pm 4.1 2.4 1.6 84 1.0 CALM 0 6 0 3 1024.6 1025.6 0.0
26/08:00pm 5.6 1.5 2.1 78 1.5 NNE 13 17 7 9 1024.5 1025.5 0.0
26/07:30pm 5.7 1.9 1.8 76 1.6 NE 11 15 6 8 1024.2 1025.2 0.0
26/07:00pm 7.1 2.6 2.4 72 2.0 NNE 15 17 8 9 1024.0 1025.0 0.0
26/06:30pm 7.1 3.0 2.4 72 2.0 NNE 13 19 7 10 1023.6 1024.6 0.0
26/06:00pm 7.5 3.0 2.2 69 2.3 N 15 19 8 10 1022.7 1023.7 0.0
26/05:30pm 8.2 3.4 2.4 67 2.5 N 17 19 9 10 1022.3 1023.3 0.0
26/05:00pm 9.1 5.0 2.4 63 2.9 NNE 13 17 7 9 1022.2 1023.2 0.0
26/04:30pm 10.7 6.4 3.0 59 3.5 NNE 15 19 8 10 1022.0 1023.0 0.0
26/04:00pm 11.8 7.0 2.8 54 4.0 N 17 22 9 12 1021.9 1022.8 0.0
26/03:30pm 13.1 8.8 3.5 52 4.4 N 15 22 8 12 1021.8 1022.7 0.0

Latest Capital City Observations: Canberra | Sydney | Melbourne | Brisbane | Adelaide | Perth | Hobart | Darwin

Other Formats:

Comma delimited format used in spreadsheet applications
http://www.bom.gov.au/fwo/IDN60903/IDN60903.94926.axf

JavaScript Object Notation format (JSON) in row-major order
http://www.bom.gov.au/fwo/IDN60903/IDN60903.94926.json